Flight Track Log - Related Links

Times and Time Zones

All times are in EDT time to prevent confusion due to time zone crossing. See the UAL1107 flight status page for this flight to view local times or setup timezone preferences in your user account.

Time Position Orientation Groundspeed Altitude Reporting Facility
EDT Latitude Longitude Course Direction KTS MPH feet Rate Location/Type
Tue 09:47:18 PM 39.8691 -104.6871 North 111 128 5,200  Level FlightAware ADS-B (EGHH / BOH)
Tue 09:48:08 PM 39.9056 -104.6868 North 194 223 6,000 1,241 Climbing FlightAware ADS-B (EGHH / BOH)
Tue 09:48:16 PM 39.9060 -104.6868 354° North 196 226 6,400 2,483 Climbing FlightAware ADS-B
Tue 09:48:37 PM 39.9328 -104.6923 346° North 207 238 7,200 2,143 Climbing FlightAware ADS-B (EGHH / BOH)
Tue 09:48:58 PM 39.9536 -104.6995 345° North 222 255 7,900 2,341 Climbing FlightAware ADS-B (EGHH / BOH)
Tue 09:49:18 PM 39.9734 -104.7065 345° North 225 259 8,800 2,308 Climbing FlightAware ADS-B (EGHH / BOH)
Tue 09:49:37 PM 39.9939 -104.7137 345° North 241 277 9,400 1,765 Climbing FlightAware ADS-B (EGHH / BOH)
Tue 09:49:52 PM 40.0094 -104.7191 345° North 251 289 9,800 1,698 Climbing FlightAware ADS-B
Tue 09:50:30 PM 40.0509 -104.7336 342° North 281 323 10,900 1,652 Climbing FlightAware ADS-B (EGHH / BOH)
Tue 09:51:01 PM 40.0947 -104.7536 340° North 308 354 11,700 1,385 Climbing FlightAware ADS-B (EGHH / BOH)
Tue 09:51:35 PM 40.1395 -104.7750 340° North 338 389 12,400 1,833 Climbing FlightAware ADS-B
Tue 09:52:13 PM 40.1987 -104.8030 340° North 352 405 13,900 2,354 Climbing FlightAware ADS-B (EGHH / BOH)
Tue 09:52:54 PM 40.2587 -104.8307 340° North 358 412 15,500 2,560 Climbing FlightAware ADS-B (EGHH / BOH)
Tue 09:53:28 PM 40.3105 -104.8555 340° North 357 411 17,100 2,438 Climbing FlightAware ADS-B
Tue 09:53:58 PM 40.3587 -104.8779 341° North 362 417 18,100 1,935 Climbing FlightAware ADS-B (EGHH / BOH)
Tue 09:54:30 PM 40.4119 -104.9026 340° North 372 428 19,100 1,760 Climbing FlightAware ADS-B
Tue 09:55:13 PM 40.4701 -104.9295 340° North 389 448 20,300 1,650 Climbing FlightAware ADS-B
Tue 09:55:50 PM 40.5508 -104.9671 340° North 400 460 21,300 1,846 Climbing FlightAware ADS-B (EGHH / BOH)
Tue 09:56:31 PM 40.6186 -104.9992 340° North 404 465 22,700 1,857 Climbing FlightAware ADS-B (EGHH / BOH)
Tue 09:57:14 PM 40.6977 -105.0367 340° North 412 474 23,900 1,481 Climbing FlightAware ADS-B (EGHH / BOH)
Tue 09:57:52 PM 40.7342 -105.0544 330° Northwest 416 479 24,700 1,297 Climbing FlightAware ADS-B (CYQT)
Tue 09:58:28 PM 40.8149 -105.1234 319° Northwest 420 483 25,500 1,297 Climbing FlightAware ADS-B (EGHH / BOH)
Tue 09:59:06 PM 40.8771 -105.1938 319° Northwest 428 493 26,300 1,114 Climbing FlightAware ADS-B (EGHH / BOH)
Tue 09:59:38 PM 40.9238 -105.2468 319° Northwest 432 497 26,800 870 Climbing FlightAware ADS-B
Tue 10:00:15 PM 40.9776 -105.3082 319° Northwest 443 510 27,300 1,075 Climbing FlightAware ADS-B (EGHH / BOH)
Tue 10:00:45 PM 41.0299 -105.3681 319° Northwest 447 514 28,000 1,543 Climbing FlightAware ADS-B (EGHH / BOH)
Tue 10:01:25 PM 41.0901 -105.4351 320° Northwest 443 510 29,100 2,000 Climbing FlightAware ADS-B (EGHH / BOH)
Tue 10:02:06 PM 41.1484 -105.4996 320° Northwest 423 487 30,700 2,148 Climbing FlightAware ADS-B (EGHH / BOH)
Tue 10:02:46 PM 41.2109 -105.5693 320° Northwest 412 474 32,000 1,629 Climbing FlightAware ADS-B (EGHH / BOH)
Tue 10:03:16 PM 41.2537 -105.6173 320° Northwest 409 471 32,600 1,143 Climbing FlightAware ADS-B (EGHH / BOH)
Tue 10:03:49 PM 41.3047 -105.6744 320° Northwest 407 468 33,200 767 Climbing FlightAware ADS-B (EGHH / BOH)
Tue 10:04:42 PM 41.3810 -105.7602 320° Northwest 412 474 33,700 462 Climbing FlightAware ADS-B (EGHH / BOH)
Tue 10:05:33 PM 41.4462 -105.8334 320° Northwest 414 476 34,000 220 Climbing FlightAware ADS-B (EGHH / BOH)
Tue 10:06:04 PM 41.5011 -105.8953 320° Northwest 415 478 34,000  Level FlightAware ADS-B (EGHH / BOH)
Tue 10:06:45 PM 41.5605 -105.9630 319° Northwest 414 476 34,000  Level FlightAware ADS-B (EGHH / BOH)
Tue 10:07:24 PM 41.6176 -106.0278 320° Northwest 420 483 34,000  Level FlightAware ADS-B (EGHH / BOH)
Tue 10:07:54 PM 41.6636 -106.0798 319° Northwest 421 484 34,000  Level FlightAware ADS-B (EGHH / BOH)
Tue 10:08:54 PM 41.7492 -106.1777 320° Northwest 422 486 34,000  Level FlightAware ADS-B (EGHH / BOH)
Tue 10:09:24 PM 41.7864 -106.2202 320° Northwest 423 487 34,000  Level FlightAware ADS-B (EGHH / BOH)
Tue 10:10:01 PM 41.8416 -106.2835 319° Northwest 423 487 34,000  Level FlightAware ADS-B (EGHH / BOH)
Tue 10:10:37 PM 41.8922 -106.3418 320° Northwest 422 486 34,000  Level FlightAware ADS-B (EGHH / BOH)
Tue 10:11:17 PM 41.9630 -106.4229 319° Northwest 421 484 34,000  Level FlightAware ADS-B (EGHH / BOH)
Tue 10:12:01 PM 42.0286 -106.4987 319° Northwest 419 482 34,000  Level FlightAware ADS-B (EGHH / BOH)
Tue 10:12:35 PM 42.0744 -106.5553 319° Northwest 421 484 34,000  Level Salt Lake Center
Tue 10:13:12 PM 42.1233 -106.6100 320° Northwest 415 478 34,000  Level Denver Center
Tue 10:14:14 PM 42.2078 -106.7067 320° Northwest 416 479 34,000  Level Denver Center
Tue 10:15:16 PM 42.3047 -106.8208 319° Northwest 416 479 34,000  Level Denver Center
Tue 10:16:18 PM 42.3886 -106.9183 319° Northwest 416 479 34,000  Level Denver Center
Tue 10:17:19 PM 42.4850 -107.0333 319° Northwest 416 479 34,000  Level Denver Center
Tue 10:18:21 PM 42.5694 -107.1325 319° Northwest 416 479 34,000  Level Denver Center
Tue 10:19:23 PM 42.6664 -107.2481 319° Northwest 417 480 34,000  Level Denver Center
Tue 10:20:25 PM 42.7508 -107.3483 319° Northwest 419 482 34,000  Level Denver Center
Tue 10:21:27 PM 42.8486 -107.4647 319° Northwest 420 483 34,000  Level Denver Center
Tue 10:22:29 PM 42.9303 -107.5642 318° Northwest 420 483 34,000  Level Denver Center
Tue 10:23:31 PM 43.0297 -107.6825 319° Northwest 420 483 34,000  Level Denver Center
Tue 10:24:33 PM 43.1131 -107.7847 318° Northwest 420 483 34,000  Level Denver Center
Tue 10:25:55 PM 43.2264 -107.9256 318° Northwest 420 483 34,000  Level Salt Lake Center
Tue 10:26:57 PM 43.3131 -108.0314 318° Northwest 419 482 34,000  Level Salt Lake Center
Tue 10:27:58 PM 43.3994 -108.1364 319° Northwest 417 480 34,000  Level Salt Lake Center
Tue 10:29:00 PM 43.5025 -108.2647 318° Northwest 417 480 34,000  Level Salt Lake Center
Tue 10:30:02 PM 43.5886 -108.3714 318° Northwest 417 480 34,000  Level Salt Lake Center
Tue 10:31:03 PM 43.6747 -108.4786 318° Northwest 417 480 34,000  Level Salt Lake Center
Tue 10:32:05 PM 43.7625 -108.5867 318° Northwest 418 481 34,000  Level Salt Lake Center
Tue 10:33:07 PM 43.8486 -108.6953 318° Northwest 418 481 34,000  Level Salt Lake Center
Tue 10:34:08 PM 43.9342 -108.8036 318° Northwest 418 481 34,000  Level Salt Lake Center
Tue 10:35:10 PM 44.0211 -108.9119 318° Northwest 418 481 34,000  Level Salt Lake Center
Tue 10:36:12 PM 44.1053 -109.0208 317° Northwest 417 480 34,000  Level Salt Lake Center
Tue 10:37:13 PM 44.2078 -109.1494 318° Northwest 416 479 34,000  Level Salt Lake Center
Tue 10:38:15 PM 44.2919 -109.2583 317° Northwest 415 478 34,000  Level Salt Lake Center
Tue 10:39:16 PM 44.3767 -109.3656 318° Northwest 414 476 34,000  Level Salt Lake Center
Tue 10:40:18 PM 44.4669 -109.4792 318° Northwest 414 476 34,000  Level Salt Lake Center
Tue 10:41:20 PM 44.5458 -109.5817 317° Northwest 412 474 34,000  Level Salt Lake Center
Tue 10:42:21 PM 44.6281 -109.6922 316° Northwest 410 472 34,000  Level Salt Lake Center
Tue 10:43:23 PM 44.7117 -109.8003 317° Northwest 408 470 34,000  Level Salt Lake Center
Tue 10:44:25 PM 44.8111 -109.9297 317° Northwest 410 472 34,000  Level Salt Lake Center
Tue 10:45:26 PM 44.8919 -110.0356 317° Northwest 413 475 34,000  Level Salt Lake Center
Tue 10:46:28 PM 44.9714 -110.1425 316° Northwest 413 475 34,000  Level Salt Lake Center
Tue 10:47:29 PM 45.0661 -110.2675 317° Northwest 416 479 34,000  Level Salt Lake Center
Tue 10:48:31 PM 45.1486 -110.3778 317° Northwest 415 478 34,000  Level Salt Lake Center
Tue 10:49:33 PM 45.2308 -110.4869 317° Northwest 409 471 34,000  Level Salt Lake Center
Tue 10:50:34 PM 45.3203 -110.6072 317° Northwest 408 470 34,000  Level Salt Lake Center
Tue 10:51:36 PM 45.4042 -110.7200 317° Northwest 408 470 34,000  Level Salt Lake Center
Tue 10:52:37 PM 45.4875 -110.8347 316° Northwest 408 470 34,000  Level Salt Lake Center
Tue 10:53:39 PM 45.5706 -110.9478 316° Northwest 408 470 34,000  Level Salt Lake Center
Tue 10:54:40 PM 45.6547 -111.0631 316° Northwest 408 470 34,000  Level Salt Lake Center
Tue 10:55:42 PM 45.7381 -111.1783 316° Northwest 408 470 34,000  Level Salt Lake Center
Tue 10:56:44 PM 45.8211 -111.2936 316° Northwest 404 465 34,000 195 Level Salt Lake Center
Tue 10:57:45 PM 45.9033 -111.4089 316° Northwest 403 464 34,400 439 Climbing Salt Lake Center
Tue 10:58:47 PM 45.9856 -111.5244 316° Northwest 404 465 34,900 634 Climbing Salt Lake Center
Tue 10:59:48 PM 46.0686 -111.6408 316° Northwest 408 470 35,700 537 Climbing Salt Lake Center
Tue 11:00:50 PM 46.1506 -111.7569 316° Northwest 407 468 36,000 146 Climbing Salt Lake Center
Tue 11:01:51 PM 46.2311 -111.8719 315° West 402 463 36,000  Level Salt Lake Center
Tue 11:02:53 PM 46.3119 -111.9881 315° West 402 463 36,000  Level Salt Lake Center
Tue 11:03:54 PM 46.3997 -112.1125 316° Northwest 402 463 36,000  Level Salt Lake Center
Tue 11:04:56 PM 46.4758 -112.2172 317° Northwest 404 465 36,000  Level Salt Lake Center
Tue 11:05:57 PM 46.5561 -112.3331 315° West 406 467 36,000 -49 Level Salt Lake Center
Tue 11:06:59 PM 46.6375 -112.4500 315° West 407 468 35,900  Descending Salt Lake Center
Tue 11:08:00 PM 46.7178 -112.5683 315° West 409 471 36,000 49 Climbing Salt Lake Center
Tue 11:09:02 PM 46.8000 -112.6861 316° Northwest 412 474 36,000  Level Salt Lake Center
Tue 11:10:03 PM 46.8803 -112.8039 315° West 411 473 36,000 -49 Level Salt Lake Center
Tue 11:11:05 PM 46.9656 -112.9289 315° West 406 467 35,900  Descending Salt Lake Center
Tue 11:12:06 PM 47.0422 -113.0436 314° West 400 460 36,000  Climbing Salt Lake Center
Tue 11:13:08 PM 47.1194 -113.1561 315° West 394 453 35,900  Descending Salt Lake Center
Tue 11:14:09 PM 47.2086 -113.2922 314° West 387 445 36,000  Climbing Salt Lake Center
Tue 11:15:10 PM 47.2831 -113.4031 315° West 386 444 35,900  Descending Salt Lake Center
Tue 11:16:12 PM 47.3547 -113.5131 314° West 376 433 36,000 49 Climbing Salt Lake Center
Tue 11:17:13 PM 47.4272 -113.6211 315° West 375 432 36,000  Level Salt Lake Center
Tue 11:18:15 PM 47.5006 -113.7317 314° West 375 432 36,000  Level Salt Lake Center
Tue 11:19:16 PM 47.5739 -113.8428 314° West 376 433 36,000  Level Salt Lake Center
Tue 11:20:17 PM 47.6464 -113.9542 314° West 378 435 36,000  Level Salt Lake Center
Tue 11:21:19 PM 47.7194 -114.0656 314° West 377 434 36,000 -49 Level Salt Lake Center
Tue 11:22:20 PM 47.7928 -114.1786 314° West 377 434 35,900 -49 Descending Salt Lake Center
Tue 11:23:22 PM 47.8658 -114.2925 314° West 377 434 35,900  Level Salt Lake Center
Tue 11:24:23 PM 47.9428 -114.4086 315° West 379 436 35,900  Level Salt Lake Center
Tue 11:25:24 PM 48.0172 -114.5278 313° West 381 438 35,900 49 Level Salt Lake Center
Tue 11:26:25 PM 48.0928 -114.6456 314° West 382 440 36,000 49 Climbing Salt Lake Center
Tue 11:27:27 PM 48.1825 -114.7883 313° West 388 447 36,000  Level Salt Lake Center
Tue 11:28:28 PM 48.2575 -114.9067 314° West 389 448 36,000  Level Salt Lake Center
Tue 11:29:29 PM 48.3300 -115.0222 313° West 387 445 36,000 -49 Level Salt Lake Center
Tue 11:30:31 PM 48.4025 -115.1378 313° West 385 443 35,900 -49 Descending Salt Lake Center
Tue 11:31:32 PM 48.4742 -115.2536 313° West 383 441 35,900 49 Level Salt Lake Center
Tue 11:32:33 PM 48.5453 -115.3692 313° West 381 438 36,000 49 Climbing Salt Lake Center
Tue 11:33:34 PM 48.6169 -115.4836 313° West 379 436 36,000  Level Salt Lake Center
Tue 11:34:36 PM 48.6883 -115.5997 313° West 379 436 36,000  Level Salt Lake Center
Tue 11:35:16 PM 48.7333 -115.6667 316° Northwest 380 437 36,000  Level Vancouver Center
Tue 11:36:16 PM 48.8000 -115.7833 311° West 380 437 36,000  Level Vancouver Center
Tue 11:37:16 PM 48.8833 -115.9000 317° Northwest 380 437 36,000  Level Vancouver Center
Tue 11:38:16 PM 48.9500 -116.0167 311° West 380 437 36,000  Level Vancouver Center
Tue 11:39:16 PM 49.0167 -116.1333 311° West 380 437 36,000  Level Vancouver Center
Tue 11:40:16 PM 49.0833 -116.2500 311° West 380 437 36,000  Level Vancouver Center
Tue 11:41:16 PM 49.1667 -116.3833 314° West 380 437 36,000  Level Vancouver Center
Tue 11:42:16 PM 49.2167 -116.5000 303° West 380 437 36,000  Level Vancouver Center
Tue 11:43:16 PM 49.3000 -116.6333 314° West 380 437 36,000  Level Vancouver Center
Tue 11:44:16 PM 49.3667 -116.7500 311° West 390 449 36,000  Level Vancouver Center
Tue 11:45:16 PM 49.4500 -116.8667 318° Northwest 390 449 36,000  Level Vancouver Center
Tue 11:46:16 PM 49.5167 -116.9833 311° West 390 449 36,000  Level Vancouver Center
Tue 11:47:16 PM 49.6000 -117.1167 314° West 390 449 36,000  Level Vancouver Center
Tue 11:48:16 PM 49.6667 -117.2500 308° West 390 449 36,000  Level Vancouver Center
Tue 11:49:16 PM 49.7167 -117.3667 304° West 390 449 36,000  Level Vancouver Center
Tue 11:50:16 PM 49.8000 -117.5167 311° West 390 449 36,000  Level Vancouver Center
Tue 11:51:16 PM 49.8667 -117.6333 312° West 390 449 36,000  Level Vancouver Center
Tue 11:52:16 PM 49.9500 -117.7500 318° Northwest 390 449 36,000  Level Vancouver Center
Tue 11:53:16 PM 50.0167 -117.8667 312° West 390 449 36,000  Level Vancouver Center
Tue 11:54:16 PM 50.1000 -118.0000 314° West 400 460 36,000  Level Vancouver Center
Tue 11:55:16 PM 50.1667 -118.1333 308° West 400 460 36,000  Level Vancouver Center
Tue 11:56:16 PM 50.2333 -118.2667 308° West 400 460 36,000  Level Vancouver Center
Tue 11:57:17 PM 50.3167 -118.4167 311° West 400 460 36,000  Level Vancouver Center
Tue 11:58:16 PM 50.3833 -118.5333 312° West 400 460 36,000  Level Vancouver Center
Tue 11:59:16 PM 50.4667 -118.6500 318° Northwest 400 460 36,000  Level Vancouver Center
Wed 12:00:16 AM 50.5167 -118.8000 298° West 400 460 36,000  Level Vancouver Center
Wed 12:01:17 AM 50.6000 -118.9333 315° West 400 460 36,000  Level Vancouver Center
Wed 12:02:16 AM 50.6667 -119.0500 312° West 390 449 36,000  Level Vancouver Center
Wed 12:03:16 AM 50.7333 -119.1833 308° West 390 449 36,000  Level Vancouver Center
Wed 12:04:16 AM 50.8000 -119.3333 305° West 400 460 36,000  Level Vancouver Center
Wed 12:05:16 AM 50.8833 -119.4500 319° Northwest 400 460 36,000  Level Vancouver Center
Wed 12:06:16 AM 50.9500 -119.6167 302° West 400 460 36,000  Level Vancouver Center
Wed 12:07:17 AM 51.0167 -119.7333 312° West 400 460 36,000  Level Vancouver Center
Wed 12:08:16 AM 51.0833 -119.8667 309° West 400 460 36,000  Level Vancouver Center
Wed 12:09:16 AM 51.1667 -120.0167 312° West 390 449 36,000  Level Vancouver Center
Wed 12:10:16 AM 51.2333 -120.1500 309° West 390 449 36,000  Level Vancouver Center
Wed 12:11:17 AM 51.2833 -120.2667 304° West 390 449 36,000  Level Vancouver Center
Wed 12:12:16 AM 51.3667 -120.4000 315° West 390 449 36,000  Level Vancouver Center
Wed 12:13:16 AM 51.4333 -120.5500 306° West 390 449 36,000  Level Vancouver Center
Wed 12:14:16 AM 51.5000 -120.6833 309° West 390 449 36,000  Level Vancouver Center
Wed 12:15:16 AM 51.5667 -120.8167 309° West 390 449 36,000  Level Vancouver Center
Wed 12:16:17 AM 51.6333 -120.9667 306° West 390 449 36,000  Level Vancouver Center
Wed 12:17:16 AM 51.7167 -121.1000 315° West 390 449 36,000  Level Vancouver Center
Wed 12:18:16 AM 51.7833 -121.2333 309° West 400 460 36,000  Level Vancouver Center
Wed 12:19:16 AM 51.8500 -121.3667 309° West 390 449 36,000  Level Vancouver Center
Wed 12:20:16 AM 51.9167 -121.5167 306° West 400 460 36,000  Level Vancouver Center
Wed 12:21:16 AM 51.9833 -121.6500 309° West 390 449 36,000  Level Vancouver Center
Wed 12:22:17 AM 52.0500 -121.7833 309° West 390 449 36,000  Level Vancouver Center
Wed 12:23:16 AM 52.1167 -121.9500 303° West 390 449 36,000  Level Vancouver Center
Wed 12:24:16 AM 52.1833 -122.0833 309° West 390 449 36,000  Level Vancouver Center
Wed 12:25:16 AM 52.2500 -122.2167 309° West 390 449 36,000  Level Vancouver Center
Wed 12:26:16 AM 52.3167 -122.3500 309° West 400 460 36,000  Level Vancouver Center
Wed 12:27:17 AM 52.3833 -122.4833 309° West 400 460 36,000  Level Vancouver Center
Wed 12:28:16 AM 52.4667 -122.6167 316° Northwest 400 460 36,000  Level Vancouver Center
Wed 12:29:17 AM 52.5333 -122.7500 309° West 410 472 36,000  Level Vancouver Center
Wed 12:30:17 AM 52.6167 -122.9167 310° West 410 472 36,000  Level Vancouver Center
Wed 12:31:17 AM 52.6833 -123.0500 310° West 410 472 36,000  Level Vancouver Center
Wed 12:32:16 AM 52.7667 -123.1833 316° Northwest 410 472 36,000  Level Vancouver Center
Wed 12:33:17 AM 52.8500 -123.3333 313° West 410 472 36,000  Level Vancouver Center
Wed 12:34:17 AM 52.9167 -123.5000 304° West 420 483 36,000  Level Vancouver Center
Wed 12:35:17 AM 53.0000 -123.6333 316° Northwest 420 483 36,000  Level Vancouver Center
Wed 12:36:17 AM 53.0667 -123.7667 310° West 420 483 36,000  Level Vancouver Center
Wed 12:37:17 AM 53.1500 -123.9333 310° West 420 483 36,000  Level Vancouver Center
Wed 12:38:17 AM 53.2167 -124.0833 307° West 420 483 36,000  Level Vancouver Center
Wed 12:39:17 AM 53.3000 -124.2500 310° West 430 495 36,000  Level Vancouver Center
Wed 12:40:17 AM 53.3833 -124.3833 316° Northwest 430 495 36,000  Level Vancouver Center
Wed 12:41:17 AM 53.4500 -124.5500 304° West 430 495 36,000  Level Vancouver Center
Wed 12:42:17 AM 53.5167 -124.7000 307° West 430 495 36,000  Level Vancouver Center
Wed 12:43:17 AM 53.5833 -124.8667 304° West 430 495 36,000  Level Vancouver Center
Wed 12:44:17 AM 53.6667 -125.0000 317° Northwest 430 495 36,000  Level Vancouver Center
Wed 12:45:17 AM 53.7500 -125.1833 308° West 430 495 36,000  Level Vancouver Center
Wed 12:46:17 AM 53.8167 -125.3167 310° West 440 506 36,000  Level Vancouver Center
Wed 12:47:17 AM 53.9000 -125.5000 308° West 440 506 36,000  Level Vancouver Center
Wed 12:48:17 AM 53.9833 -125.6333 317° Northwest 440 506 36,000  Level Vancouver Center
Wed 12:49:17 AM 54.0500 -125.8167 302° West 440 506 36,000  Level Vancouver Center
Wed 12:50:17 AM 54.1333 -125.9833 311° West 440 506 36,000  Level Vancouver Center
Wed 12:51:17 AM 54.2000 -126.1333 307° West 440 506 36,000  Level Vancouver Center
Wed 12:52:17 AM 54.2833 -126.3167 308° West 440 506 36,000  Level Vancouver Center
Wed 12:53:17 AM 54.3500 -126.4667 307° West 440 506 36,000  Level Vancouver Center
Wed 12:54:17 AM 54.4333 -126.6333 311° West 440 506 36,000  Level Vancouver Center
Wed 12:55:17 AM 54.5167 -126.8167 308° West 440 506 36,000  Level Vancouver Center
Wed 12:56:17 AM 54.5833 -126.9667 308° West 440 506 36,000  Level Vancouver Center
Wed 12:57:17 AM 54.6667 -127.1500 308° West 440 506 36,000  Level Vancouver Center
Wed 12:58:17 AM 54.7333 -127.3000 308° West 440 506 36,000  Level Vancouver Center
Wed 12:59:17 AM 54.8167 -127.4667 311° West 440 506 36,000  Level Vancouver Center
Wed 01:00:17 AM 54.8833 -127.6167 308° West 440 506 36,000  Level Vancouver Center
Wed 01:01:17 AM 54.9667 -127.8000 308° West 440 506 36,000  Level Vancouver Center
Wed 01:02:17 AM 55.0500 -127.9667 311° West 440 506 36,000  Level Vancouver Center
Wed 01:03:17 AM 55.1167 -128.1167 308° West 440 506 36,000  Level Vancouver Center
Wed 01:04:17 AM 55.1833 -128.3000 303° West 430 495 36,000  Level Vancouver Center
Wed 01:05:17 AM 55.2667 -128.4500 314° West 440 506 36,000  Level Vancouver Center
Wed 01:06:17 AM 55.3333 -128.6333 303° West 440 506 36,000  Level Vancouver Center
Wed 01:07:17 AM 55.4167 -128.8000 311° West 440 506 36,000  Level Vancouver Center
Wed 01:08:17 AM 55.4833 -128.9833 303° West 450 518 36,000  Level Vancouver Center
Wed 01:09:17 AM 55.5667 -129.1667 309° West 440 506 36,000  Level Vancouver Center
Wed 01:10:17 AM 55.6333 -129.3167 308° West 450 518 36,000  Level Vancouver Center
Wed 01:11:17 AM 55.7167 -129.5167 307° West 440 506 36,000  Level Vancouver Center
Wed 01:12:17 AM 55.7833 -129.6667 308° West 440 506 36,000  Level Vancouver Center
Wed 01:13:17 AM 55.8500 -129.8333 306° West 440 506 36,000  Level Vancouver Center
Wed 01:14:17 AM 55.9333 -130.0167 309° West 440 506 36,000  Level Vancouver Center
Wed 01:15:17 AM 55.9833 -130.1833 298° West 440 506 36,000  Level Vancouver Center
Wed 01:16:17 AM 56.0667 -130.3667 309° West 440 506 36,000  Level Vancouver Center
Wed 01:17:17 AM 56.1333 -130.5667 301° West 450 518 36,000  Level Vancouver Center
Wed 01:18:17 AM 56.2167 -130.7500 309° West 450 518 36,000  Level Vancouver Center
Wed 01:19:17 AM 56.2667 -130.9500 294° West 450 518 36,000  Level Vancouver Center
Wed 01:20:17 AM 56.3333 -131.1333 303° West 450 518 36,000  Level Vancouver Center
Wed 01:21:17 AM 56.4167 -131.3333 307° West 450 518 36,000  Level Vancouver Center
Wed 01:22:17 AM 56.4833 -131.5333 301° West 450 518 36,000  Level Vancouver Center
Wed 01:23:17 AM 56.5500 -131.7000 306° West 440 506 36,000  Level Vancouver Center
Wed 01:24:17 AM 56.6167 -131.8667 306° West 450 518 36,000  Level Vancouver Center
Wed 01:25:17 AM 56.6833 -132.0500 304° West 450 518 36,000  Level Vancouver Center
Wed 01:26:17 AM 56.7500 -132.2500 301° West 430 495 36,000  Level Vancouver Center
Wed 01:27:17 AM 56.8000 -132.4500 295° West 450 518 36,000  Level Vancouver Center
Wed 01:28:40 AM 56.9000 -132.6333 315° West 440 506 36,000  Level Anchorage Center
Wed 01:29:40 AM 56.9667 -132.8167 304° West 450 518 36,000  Level Anchorage Center
Wed 01:30:40 AM 57.0333 -133.0167 302° West 450 518 36,000  Level Anchorage Center
Wed 01:31:40 AM 57.1000 -133.2167 302° West 450 518 36,000  Level Anchorage Center
Wed 01:32:40 AM 57.1667 -133.4000 304° West 450 518 36,000  Level Anchorage Center
Wed 01:33:40 AM 57.2333 -133.6000 302° West 450 518 36,000  Level Anchorage Center
Wed 01:34:40 AM 57.2833 -133.8000 295° West 450 518 36,000  Level Anchorage Center
Wed 01:35:41 AM 57.3500 -133.9833 304° West 450 518 36,000  Level Anchorage Center
Wed 01:36:41 AM 57.4167 -134.1833 302° West 440 506 36,000  Level Anchorage Center
Wed 01:37:41 AM 57.4833 -134.3833 302° West 440 506 36,000  Level Anchorage Center
Wed 01:38:41 AM 57.5500 -134.5667 304° West 450 518 36,000  Level Anchorage Center
Wed 01:39:41 AM 57.6167 -134.7667 302° West 450 518 36,000  Level Anchorage Center
Wed 01:40:41 AM 57.6667 -134.9667 295° West 450 518 36,000  Level Anchorage Center
Wed 01:41:41 AM 57.7333 -135.1667 302° West 450 518 36,000  Level Anchorage Center
Wed 01:42:41 AM 57.8000 -135.3833 300° West 450 518 36,000  Level Anchorage Center
Wed 01:43:41 AM 57.8667 -135.5833 302° West 450 518 36,000  Level Anchorage Center
Wed 01:44:41 AM 57.9167 -135.7833 295° West 450 518 36,000  Level Anchorage Center
Wed 01:45:41 AM 57.9833 -135.9833 302° West 440 506 36,000  Level Anchorage Center
Wed 01:46:41 AM 58.0500 -136.1833 302° West 450 518 36,000  Level Anchorage Center
Wed 01:47:41 AM 58.1000 -136.3833 295° West 440 506 36,000  Level Anchorage Center
Wed 01:48:42 AM 58.1667 -136.5833 302° West 440 506 36,000  Level Anchorage Center
Wed 01:49:42 AM 58.2167 -136.8000 294° West 450 518 36,000  Level Anchorage Center
Wed 01:50:42 AM 58.2833 -137.0000 302° West 450 518 36,000  Level Anchorage Center
Wed 01:51:42 AM 58.3500 -137.2167 300° West 450 518 36,000  Level Anchorage Center
Wed 01:52:42 AM 58.4000 -137.4167 296° West 450 518 36,000  Level Anchorage Center
Wed 01:53:42 AM 58.4667 -137.6333 301° West 460 529 36,000  Level Anchorage Center
Wed 01:54:43 AM 58.5333 -137.8500 301° West 450 518 36,000  Level Anchorage Center
Wed 01:55:43 AM 58.5833 -138.0667 294° West 460 529 36,000  Level Anchorage Center
Wed 01:56:43 AM 58.6500 -138.2833 301° West 460 529 36,000  Level Anchorage Center
Wed 01:57:43 AM 58.7000 -138.5000 294° West 450 518 36,000  Level Anchorage Center
Wed 01:58:43 AM 58.7667 -138.7167 301° West 450 518 36,000  Level Anchorage Center
Wed 01:59:43 AM 58.8167 -138.9333 294° West 450 518 36,000  Level Anchorage Center
Wed 02:00:43 AM 58.8667 -139.1500 294° West 450 518 36,000  Level Anchorage Center
Wed 02:01:43 AM 58.9333 -139.3667 301° West 450 518 36,000  Level Anchorage Center
Wed 02:02:43 AM 58.9833 -139.5833 294° West 440 506 36,000  Level Anchorage Center
Wed 02:03:43 AM 59.0500 -139.8000 301° West 440 506 36,000  Level Anchorage Center
Wed 02:04:43 AM 59.1000 -140.0167 294° West 440 506 36,000  Level Anchorage Center
Wed 02:05:44 AM 59.1500 -140.2333 294° West 440 506 36,000  Level Anchorage Center
Wed 02:06:44 AM 59.2000 -140.4500 294° West 440 506 36,000  Level Anchorage Center
Wed 02:07:44 AM 59.2667 -140.6667 301° West 450 518 36,000  Level Anchorage Center
Wed 02:08:44 AM 59.3167 -140.9000 293° West 450 518 36,000  Level Anchorage Center
Wed 02:09:44 AM 59.3667 -141.1167 294° West 450 518 36,000  Level Anchorage Center
Wed 02:10:44 AM 59.4167 -141.3500 293° West 440 506 36,000  Level Anchorage Center
Wed 02:11:45 AM 59.4833 -141.5667 301° West 450 518 36,000  Level Anchorage Center
Wed 02:12:45 AM 59.5333 -141.8000 293° West 450 518 36,000  Level Anchorage Center
Wed 02:13:45 AM 59.5833 -142.0167 295° West 450 518 36,000  Level Anchorage Center
Wed 02:14:44 AM 59.6333 -142.2500 293° West 450 518 36,000  Level Anchorage Center
Wed 02:15:44 AM 59.6833 -142.4667 295° West 450 518 36,000  Level Anchorage Center
Wed 02:16:45 AM 59.7333 -142.7000 293° West 450 518 36,000  Level Anchorage Center
Wed 02:17:45 AM 59.7833 -142.9167 295° West 440 506 36,000  Level Anchorage Center
Wed 02:18:45 AM 59.8333 -143.1500 293° West 450 518 36,000  Level Anchorage Center
Wed 02:19:45 AM 59.8833 -143.3667 295° West 450 518 36,000  Level Anchorage Center
Wed 02:20:45 AM 59.9333 -143.5833 295° West 440 506 36,000  Level Anchorage Center
Wed 02:21:45 AM 59.9833 -143.8167 293° West 450 518 36,000  Level Anchorage Center
Wed 02:28:05 AM 60.2927 -145.3362 292° West 449 517 36,000  Level FlightAware ADS-B
Wed 02:28:50 AM 60.3262 -145.5078 291° West 450 518 36,000  Level FlightAware ADS-B
Wed 02:29:20 AM 60.3489 -145.6254 291° West 450 518 36,000  Level FlightAware ADS-B
Wed 02:30:05 AM 60.3824 -145.8004 291° West 451 519 36,000  Level FlightAware ADS-B
Wed 02:30:50 AM 60.4162 -145.9774 291° West 451 519 36,000  Level FlightAware ADS-B
Wed 02:31:20 AM 60.4385 -146.0960 291° West 450 518 36,000  Level FlightAware ADS-B
Wed 02:32:05 AM 60.4716 -146.2722 291° West 451 519 36,000  Level FlightAware ADS-B
Wed 02:32:50 AM 60.5053 -146.4514 291° West 450 518 36,000  Level FlightAware ADS-B
Wed 02:33:35 AM 60.5375 -146.6257 290° West 450 518 36,000  Level FlightAware ADS-B
Wed 02:34:05 AM 60.5582 -146.7394 290° West 450 518 36,000  Level FlightAware ADS-B
Wed 02:34:42 AM 60.5858 -146.8908 290° West 448 516 36,000  Level FlightAware ADS-B
Wed 02:35:20 AM 60.6129 -147.0416 290° West 447 514 36,000 -783 Level FlightAware ADS-B
Wed 02:35:51 AM 60.6355 -147.1602 296° West 442 509 35,100 -2,192 Descending FlightAware ADS-B
Wed 02:36:12 AM 60.6591 -147.2337 309° West 444 511 34,100 -2,949 Descending FlightAware ADS-B
Wed 02:36:50 AM 60.7095 -147.3560 310° West 444 511 32,200 -2,530 Descending FlightAware ADS-B
Wed 02:37:35 AM 60.7663 -147.4980 309° West 428 493 30,600 -2,160 Descending FlightAware ADS-B
Wed 02:38:05 AM 60.8042 -147.5937 309° West 420 483 29,500 -2,000 Descending FlightAware ADS-B
Wed 02:38:35 AM 60.8396 -147.6827 309° West 409 471 28,600 -2,000 Descending FlightAware ADS-B
Wed 02:39:05 AM 60.8746 -147.7713 309° West 399 459 27,500 -2,027 Descending FlightAware ADS-B
Wed 02:39:49 AM 60.9244 -147.9023 308° West 384 442 26,100 -1,920 Descending FlightAware ADS-B
Wed 02:40:20 AM 60.9572 -147.9893 308° West 374 430 25,100 -1,890 Descending FlightAware ADS-B
Wed 02:41:02 AM 61.0002 -148.1061 302° West 362 417 23,800 -1,700 Descending FlightAware ADS-B
Wed 02:41:20 AM 61.0125 -148.1649 286° West 369 425 23,400 -1,091 Descending FlightAware ADS-B
Wed 02:41:35 AM 61.0167 -148.2172 274° West 376 433 23,200 -1,067 Descending FlightAware ADS-B
Wed 02:42:05 AM 61.0160 -148.3204 269° West 367 422 22,600 -1,600 Descending FlightAware ADS-B
Wed 02:42:35 AM 61.0147 -148.4236 269° West 362 417 21,600 -2,239 Descending FlightAware ADS-B
Wed 02:43:12 AM 61.0129 -148.5544 268° West 364 419 20,100 -2,060 Descending FlightAware ADS-B
Wed 02:43:42 AM 61.0116 -148.6485 268° West 349 402 19,300 -1,279 Descending FlightAware ADS-B
Wed 02:44:13 AM 61.0100 -148.7546 268° West 324 373 18,800 -1,588 Descending FlightAware ADS-B
Wed 02:44:50 AM 61.0083 -148.8676 268° West 321 369 17,500 -2,060 Descending FlightAware ADS-B
Wed 02:45:20 AM 61.0068 -148.9570 268° West 315 362 16,500 -2,000 Descending FlightAware ADS-B
Wed 02:45:50 AM 61.0050 -149.0485 267° West 312 359 15,500 -2,000 Descending FlightAware ADS-B
Wed 02:46:20 AM 61.0023 -149.1360 266° West 311 358 14,500 -1,800 Descending FlightAware ADS-B
Wed 02:46:50 AM 60.9994 -149.2197 266° West 304 350 13,700 -1,800 Descending FlightAware ADS-B
Wed 02:47:20 AM 60.9961 -149.3106 265° West 302 348 12,700 -2,000 Descending FlightAware ADS-B
Wed 02:47:50 AM 60.9927 -149.3970 266° West 300 345 11,700 -1,800 Descending FlightAware ADS-B
Wed 02:48:20 AM 60.9890 -149.4783 264° West 290 334 10,900 -1,800 Descending FlightAware ADS-B
Wed 02:48:50 AM 60.9846 -149.5620 263° West 290 334 9,900 -1,733 Descending FlightAware ADS-B
Wed 02:49:05 AM 60.9824 -149.5997 263° West 290 334 9,600 -1,400 Descending FlightAware ADS-B
Wed 02:49:20 AM 60.9800 -149.6413 263° West 290 334 9,200 -1,200 Descending FlightAware ADS-B
Wed 02:49:35 AM 60.9777 -149.6822 264° West 288 331 9,000 -1,200 Descending FlightAware ADS-B
Wed 02:49:50 AM 60.9756 -149.7229 264° West 288 331 8,600 -1,400 Descending FlightAware ADS-B
Wed 02:50:05 AM 60.9734 -149.7634 264° West 285 328 8,300 -1,059 Descending FlightAware ADS-B
Wed 02:50:24 AM 60.9708 -149.8164 264° West 275 316 8,000 -769 Descending FlightAware ADS-B
Wed 02:50:44 AM 60.9688 -149.8651 271° West 260 299 7,800 -720 Descending FlightAware ADS-B
Wed 02:50:49 AM 60.9696 -149.8785 282° West 250 288 7,700 -900 Descending FlightAware ADS-B
Wed 02:51:04 AM 60.9735 -149.9126 285° West 243 280 7,500 -968 Descending FlightAware ADS-B
Wed 02:51:20 AM 60.9778 -149.9461 285° West 237 273 7,200 -1,231 Descending FlightAware ADS-B
Wed 02:51:43 AM 60.9847 -149.9977 286° West 233 268 6,700 -1,256 Descending FlightAware ADS-B
Wed 02:52:03 AM 60.9905 -150.0389 287° West 232 267 6,300 -1,135 Descending FlightAware ADS-B
Wed 02:52:20 AM 60.9956 -150.0742 287° West 228 262 6,000 -938 Descending FlightAware ADS-B
Wed 02:52:35 AM 61.0003 -150.1061 287° West 223 257 5,800 -1,455 Descending FlightAware ADS-B
Wed 02:52:53 AM 61.0055 -150.1419 287° West 224 258 5,200 -1,929 Descending FlightAware ADS-B
Wed 02:53:03 AM 61.0088 -150.1610 297° West 221 254 4,900 -1,500 Descending FlightAware ADS-B
Wed 02:53:13 AM 61.0141 -150.1773 309° West 216 249 4,700 -1,548 Descending FlightAware ADS-B
Wed 02:53:34 AM 61.0277 -150.2126 308° West 215 247 4,100 -1,622 Descending FlightAware ADS-B
Wed 02:53:50 AM 61.0376 -150.2389 308° West 212 244 3,700 -1,385 Descending FlightAware ADS-B
Wed 02:54:13 AM 61.0510 -150.2757 307° West 203 234 3,200 -955 Descending FlightAware ADS-B
Wed 02:54:34 AM 61.0613 -150.3042 312° West 198 228 3,000 -968 Descending FlightAware ADS-B
Wed 02:54:44 AM 61.0695 -150.3168 334° Northwest 190 219 2,700 -1,500 Descending FlightAware ADS-B
Wed 02:54:50 AM 61.0750 -150.3202 348° North 188 216 2,600 -1,429 Descending FlightAware ADS-B
Wed 02:55:05 AM 61.0877 -150.3253 349° North 185 213 2,200 -1,059 Descending FlightAware ADS-B
Wed 02:55:24 AM 61.1029 -150.3313 349° North 183 211 2,000 -400 Descending FlightAware ADS-B
Wed 02:55:35 AM 61.1085 -150.3335 350° North 182 209 2,000  Level FlightAware ADS-B
Wed 02:55:50 AM 61.1251 -150.3379 356° North 184 212 2,000  Level FlightAware ADS-B
Wed 02:56:05 AM 61.1375 -150.3392 359° North 187 215 2,000  Level FlightAware ADS-B
Wed 02:56:14 AM 61.1457 -150.3392 North 188 216 2,000  Level FlightAware ADS-B
Wed 02:56:19 AM 61.1497 -150.3386 North 188 216 2,000  Level FlightAware ADS-B
Wed 02:56:24 AM 61.1535 -150.3366 20° North 189 217 2,000  Level FlightAware ADS-B
Wed 02:56:33 AM 61.1608 -150.3275 43° Northeast 193 222 2,000  Level FlightAware ADS-B
Wed 02:56:44 AM 61.1657 -150.3120 70° East 201 231 2,000  Level FlightAware ADS-B
Wed 02:56:50 AM 61.1670 -150.2996 84° East 205 236 2,000  Level FlightAware ADS-B
Wed 02:57:04 AM 61.1670 -150.2711 92° East 208 239 2,000 -207 Level FlightAware ADS-B
Wed 02:57:19 AM 61.1673 -150.2420 88° East 199 229 1,900 -600 Descending FlightAware ADS-B
Wed 02:57:34 AM 61.1674 -150.2153 90° East 196 226 1,700 -774 Descending FlightAware ADS-B
Wed 02:57:50 AM 61.1675 -150.1845 89° East 185 213 1,500 -900 Descending FlightAware ADS-B
Wed 02:58:14 AM 61.1674 -150.1456 88° East 167 192 1,100 -955 Descending FlightAware ADS-B
Wed 02:58:34 AM 61.1676 -150.1143 89° East 153 176 800 -769 Descending FlightAware ADS-B
Wed 02:58:53 AM 61.1677 -150.0868 89° East 150 173 600 -750 Descending FlightAware ADS-B
Wed 02:59:14 AM 61.1678 -150.0579 90° East 151 174 300 -857 Descending FlightAware ADS-B

Login

Don't have an account? Register now (free) for customized features, flight alerts, and more!